sensor_id;sensor_type;location;lat;lon;timestamp;P1;durP1;ratioP1;P2;durP2;ratioP2
15931;SDS011;8065;49.520;11.284;2023-03-19T00:01:31;7.27;;;5.03;;
15931;SDS011;8065;49.520;11.284;2023-03-19T00:03:59;6.93;;;5.27;;
15931;SDS011;8065;49.520;11.284;2023-03-19T00:06:25;8.80;;;5.47;;
15931;SDS011;8065;49.520;11.284;2023-03-19T00:08:52;7.10;;;5.60;;
15931;SDS011;8065;49.520;11.284;2023-03-19T00:11:18;7.00;;;5.27;;
15931;SDS011;8065;49.520;11.284;2023-03-19T00:13:45;7.83;;;5.63;;
15931;SDS011;8065;49.520;11.284;2023-03-19T00:16:11;5.60;;;5.00;;
15931;SDS011;8065;49.520;11.284;2023-03-19T00:18:38;8.90;;;6.23;;
15931;SDS011;8065;49.520;11.284;2023-03-19T00:21:06;8.73;;;5.60;;
15931;SDS011;8065;49.520;11.284;2023-03-19T00:23:33;7.23;;;5.63;;
15931;SDS011;8065;49.520;11.284;2023-03-19T00:26:00;6.70;;;5.40;;
15931;SDS011;8065;49.520;11.284;2023-03-19T00:28:27;8.07;;;5.50;;
15931;SDS011;8065;49.520;11.284;2023-03-19T00:30:53;9.67;;;6.00;;
15931;SDS011;8065;49.520;11.284;2023-03-19T00:33:20;9.33;;;6.00;;
15931;SDS011;8065;49.520;11.284;2023-03-19T00:35:46;8.07;;;5.80;;
15931;SDS011;8065;49.520;11.284;2023-03-19T00:38:14;7.03;;;5.57;;
15931;SDS011;8065;49.520;11.284;2023-03-19T00:40:40;7.53;;;5.93;;
15931;SDS011;8065;49.520;11.284;2023-03-19T00:43:07;8.53;;;5.90;;
15931;SDS011;8065;49.520;11.284;2023-03-19T00:45:34;8.27;;;6.37;;
15931;SDS011;8065;49.520;11.284;2023-03-19T00:48:00;8.33;;;5.50;;
15931;SDS011;8065;49.520;11.284;2023-03-19T00:50:26;7.37;;;6.07;;
15931;SDS011;8065;49.520;11.284;2023-03-19T00:52:53;7.23;;;5.57;;
15931;SDS011;8065;49.520;11.284;2023-03-19T00:55:21;8.00;;;5.57;;
15931;SDS011;8065;49.520;11.284;2023-03-19T00:57:48;7.43;;;5.87;;
15931;SDS011;8065;49.520;11.284;2023-03-19T01:00:15;7.60;;;5.70;;
15931;SDS011;8065;49.520;11.284;2023-03-19T01:02:41;7.23;;;5.43;;
15931;SDS011;8065;49.520;11.284;2023-03-19T01:05:08;9.70;;;5.90;;
15931;SDS011;8065;49.520;11.284;2023-03-19T01:07:34;8.63;;;5.70;;
15931;SDS011;8065;49.520;11.284;2023-03-19T01:10:01;7.13;;;5.73;;
15931;SDS011;8065;49.520;11.284;2023-03-19T01:12:29;8.40;;;5.90;;
15931;SDS011;8065;49.520;11.284;2023-03-19T01:14:55;8.90;;;5.80;;
15931;SDS011;8065;49.520;11.284;2023-03-19T01:17:22;7.93;;;5.40;;
15931;SDS011;8065;49.520;11.284;2023-03-19T01:19:48;7.73;;;6.07;;
15931;SDS011;8065;49.520;11.284;2023-03-19T01:22:15;8.83;;;5.57;;
15931;SDS011;8065;49.520;11.284;2023-03-19T01:24:42;8.17;;;5.77;;
15931;SDS011;8065;49.520;11.284;2023-03-19T01:27:08;8.87;;;5.67;;
15931;SDS011;8065;49.520;11.284;2023-03-19T01:29:37;9.67;;;5.70;;
15931;SDS011;8065;49.520;11.284;2023-03-19T01:32:03;8.30;;;5.80;;
15931;SDS011;8065;49.520;11.284;2023-03-19T01:34:30;7.93;;;5.73;;
15931;SDS011;8065;49.520;11.284;2023-03-19T01:36:56;6.20;;;5.20;;
15931;SDS011;8065;49.520;11.284;2023-03-19T01:39:23;8.23;;;5.97;;
15931;SDS011;8065;49.520;11.284;2023-03-19T01:41:50;7.10;;;5.97;;
15931;SDS011;8065;49.520;11.284;2023-03-19T01:44:23;7.37;;;5.60;;
15931;SDS011;8065;49.520;11.284;2023-03-19T01:46:52;7.00;;;5.97;;
15931;SDS011;8065;49.520;11.284;2023-03-19T01:49:20;7.87;;;5.70;;
15931;SDS011;8065;49.520;11.284;2023-03-19T01:51:48;8.07;;;5.80;;
15931;SDS011;8065;49.520;11.284;2023-03-19T01:54:17;9.17;;;6.20;;
15931;SDS011;8065;49.520;11.284;2023-03-19T01:56:47;10.00;;;6.40;;
15931;SDS011;8065;49.520;11.284;2023-03-19T01:59:21;11.60;;;6.20;;
15931;SDS011;8065;49.520;11.284;2023-03-19T02:01:54;9.13;;;6.30;;
15931;SDS011;8065;49.520;11.284;2023-03-19T02:04:23;7.00;;;5.77;;
15931;SDS011;8065;49.520;11.284;2023-03-19T02:06:51;10.77;;;6.10;;
15931;SDS011;8065;49.520;11.284;2023-03-19T02:09:19;7.47;;;6.17;;
15931;SDS011;8065;49.520;11.284;2023-03-19T02:11:46;8.83;;;5.93;;
15931;SDS011;8065;49.520;11.284;2023-03-19T02:14:13;7.77;;;5.63;;
15931;SDS011;8065;49.520;11.284;2023-03-19T02:16:40;7.67;;;5.93;;
15931;SDS011;8065;49.520;11.284;2023-03-19T02:19:08;7.80;;;5.57;;
15931;SDS011;8065;49.520;11.284;2023-03-19T02:21:41;8.93;;;5.77;;
15931;SDS011;8065;49.520;11.284;2023-03-19T02:24:09;6.90;;;5.50;;
15931;SDS011;8065;49.520;11.284;2023-03-19T02:26:42;9.17;;;5.53;;
15931;SDS011;8065;49.520;11.284;2023-03-19T02:29:10;6.37;;;5.73;;
15931;SDS011;8065;49.520;11.284;2023-03-19T02:31:37;7.80;;;5.40;;
15931;SDS011;8065;49.520;11.284;2023-03-19T02:34:04;8.77;;;5.97;;
15931;SDS011;8065;49.520;11.284;2023-03-19T02:36:32;7.57;;;5.90;;
15931;SDS011;8065;49.520;11.284;2023-03-19T02:39:02;8.00;;;5.80;;
15931;SDS011;8065;49.520;11.284;2023-03-19T02:41:32;8.97;;;6.63;;
15931;SDS011;8065;49.520;11.284;2023-03-19T02:44:02;8.57;;;5.97;;
15931;SDS011;8065;49.520;11.284;2023-03-19T02:46:29;7.83;;;5.87;;
15931;SDS011;8065;49.520;11.284;2023-03-19T02:48:56;8.17;;;6.30;;
15931;SDS011;8065;49.520;11.284;2023-03-19T02:51:23;9.30;;;6.10;;
15931;SDS011;8065;49.520;11.284;2023-03-19T02:53:49;7.60;;;5.90;;
15931;SDS011;8065;49.520;11.284;2023-03-19T02:56:16;7.17;;;5.87;;
15931;SDS011;8065;49.520;11.284;2023-03-19T02:58:42;7.20;;;5.77;;
15931;SDS011;8065;49.520;11.284;2023-03-19T03:01:10;8.30;;;5.80;;
15931;SDS011;8065;49.520;11.284;2023-03-19T03:03:36;9.17;;;6.00;;
15931;SDS011;8065;49.520;11.284;2023-03-19T03:06:03;6.50;;;5.57;;
15931;SDS011;8065;49.520;11.284;2023-03-19T03:08:30;8.67;;;5.90;;
15931;SDS011;8065;49.520;11.284;2023-03-19T03:10:57;7.73;;;6.50;;
15931;SDS011;8065;49.520;11.284;2023-03-19T03:13:24;6.73;;;5.70;;
15931;SDS011;8065;49.520;11.284;2023-03-19T03:15:51;8.50;;;6.50;;
15931;SDS011;8065;49.520;11.284;2023-03-19T03:18:19;8.97;;;6.57;;
15931;SDS011;8065;49.520;11.284;2023-03-19T03:20:46;8.90;;;6.40;;
15931;SDS011;8065;49.520;11.284;2023-03-19T03:23:13;7.07;;;5.70;;
15931;SDS011;8065;49.520;11.284;2023-03-19T03:25:39;8.87;;;5.80;;
15931;SDS011;8065;49.520;11.284;2023-03-19T03:28:06;7.37;;;6.17;;
15931;SDS011;8065;49.520;11.284;2023-03-19T03:30:32;7.50;;;5.63;;
15931;SDS011;8065;49.520;11.284;2023-03-19T03:32:59;8.03;;;6.17;;
15931;SDS011;8065;49.520;11.284;2023-03-19T03:35:26;7.53;;;5.90;;
15931;SDS011;8065;49.520;11.284;2023-03-19T03:37:53;11.37;;;6.10;;
15931;SDS011;8065;49.520;11.284;2023-03-19T03:40:19;8.97;;;6.10;;
15931;SDS011;8065;49.520;11.284;2023-03-19T03:42:46;8.93;;;6.40;;
15931;SDS011;8065;49.520;11.284;2023-03-19T03:45:12;10.30;;;6.70;;
15931;SDS011;8065;49.520;11.284;2023-03-19T03:47:39;9.80;;;6.87;;
15931;SDS011;8065;49.520;11.284;2023-03-19T03:50:06;9.80;;;7.33;;
15931;SDS011;8065;49.520;11.284;2023-03-19T03:52:36;10.33;;;7.37;;
15931;SDS011;8065;49.520;11.284;2023-03-19T03:55:02;12.30;;;7.93;;
15931;SDS011;8065;49.520;11.284;2023-03-19T03:57:29;10.47;;;7.77;;
15931;SDS011;8065;49.520;11.284;2023-03-19T03:59:56;9.23;;;7.20;;
15931;SDS011;8065;49.520;11.284;2023-03-19T04:02:22;9.40;;;7.30;;
15931;SDS011;8065;49.520;11.284;2023-03-19T04:04:49;7.57;;;6.40;;
15931;SDS011;8065;49.520;11.284;2023-03-19T04:07:15;10.00;;;6.90;;
15931;SDS011;8065;49.520;11.284;2023-03-19T04:09:44;10.77;;;6.93;;
15931;SDS011;8065;49.520;11.284;2023-03-19T04:12:11;8.43;;;6.47;;
15931;SDS011;8065;49.520;11.284;2023-03-19T04:14:37;7.67;;;6.33;;
15931;SDS011;8065;49.520;11.284;2023-03-19T04:17:04;10.27;;;6.60;;
15931;SDS011;8065;49.520;11.284;2023-03-19T04:19:30;10.07;;;6.50;;
15931;SDS011;8065;49.520;11.284;2023-03-19T04:21:57;10.60;;;6.73;;
15931;SDS011;8065;49.520;11.284;2023-03-19T04:24:24;9.77;;;6.00;;
15931;SDS011;8065;49.520;11.284;2023-03-19T04:26:52;7.63;;;6.07;;
15931;SDS011;8065;49.520;11.284;2023-03-19T04:29:19;10.10;;;6.40;;
15931;SDS011;8065;49.520;11.284;2023-03-19T04:31:46;9.80;;;6.60;;
15931;SDS011;8065;49.520;11.284;2023-03-19T04:34:13;8.97;;;6.77;;
15931;SDS011;8065;49.520;11.284;2023-03-19T04:36:39;7.70;;;6.50;;
15931;SDS011;8065;49.520;11.284;2023-03-19T04:39:06;7.40;;;6.43;;
15931;SDS011;8065;49.520;11.284;2023-03-19T04:41:33;11.47;;;6.47;;
15931;SDS011;8065;49.520;11.284;2023-03-19T04:44:01;7.93;;;6.43;;
15931;SDS011;8065;49.520;11.284;2023-03-19T04:46:27;7.17;;;6.40;;
15931;SDS011;8065;49.520;11.284;2023-03-19T04:48:54;9.83;;;6.83;;
15931;SDS011;8065;49.520;11.284;2023-03-19T04:51:20;6.63;;;5.90;;
15931;SDS011;8065;49.520;11.284;2023-03-19T04:53:46;8.43;;;6.43;;
15931;SDS011;8065;49.520;11.284;2023-03-19T04:56:13;12.37;;;6.93;;
15931;SDS011;8065;49.520;11.284;2023-03-19T04:58:40;7.43;;;5.80;;
15931;SDS011;8065;49.520;11.284;2023-03-19T05:01:08;10.90;;;6.70;;
15931;SDS011;8065;49.520;11.284;2023-03-19T05:03:34;10.47;;;6.43;;
15931;SDS011;8065;49.520;11.284;2023-03-19T05:06:01;9.73;;;6.57;;
15931;SDS011;8065;49.520;11.284;2023-03-19T05:08:28;10.63;;;6.77;;
15931;SDS011;8065;49.520;11.284;2023-03-19T05:10:54;9.97;;;7.03;;
15931;SDS011;8065;49.520;11.284;2023-03-19T05:13:21;9.50;;;6.60;;
15931;SDS011;8065;49.520;11.284;2023-03-19T05:15:47;9.03;;;6.30;;
15931;SDS011;8065;49.520;11.284;2023-03-19T05:18:15;9.03;;;6.63;;
15931;SDS011;8065;49.520;11.284;2023-03-19T05:20:41;11.33;;;6.87;;
15931;SDS011;8065;49.520;11.284;2023-03-19T05:23:08;8.97;;;6.40;;
15931;SDS011;8065;49.520;11.284;2023-03-19T05:25:35;9.90;;;6.83;;
15931;SDS011;8065;49.520;11.284;2023-03-19T05:28:01;10.87;;;7.23;;
15931;SDS011;8065;49.520;11.284;2023-03-19T05:30:28;9.30;;;6.50;;
15931;SDS011;8065;49.520;11.284;2023-03-19T05:32:55;10.23;;;6.83;;
15931;SDS011;8065;49.520;11.284;2023-03-19T05:35:24;7.03;;;6.33;;
15931;SDS011;8065;49.520;11.284;2023-03-19T05:37:51;9.67;;;6.40;;
15931;SDS011;8065;49.520;11.284;2023-03-19T05:40:18;8.03;;;6.67;;
15931;SDS011;8065;49.520;11.284;2023-03-19T05:42:44;10.00;;;6.90;;
15931;SDS011;8065;49.520;11.284;2023-03-19T05:45:11;8.17;;;6.50;;
15931;SDS011;8065;49.520;11.284;2023-03-19T05:47:37;7.77;;;6.30;;
15931;SDS011;8065;49.520;11.284;2023-03-19T05:50:04;8.83;;;6.80;;
15931;SDS011;8065;49.520;11.284;2023-03-19T05:52:32;9.60;;;6.77;;
15931;SDS011;8065;49.520;11.284;2023-03-19T05:54:59;8.70;;;6.87;;
15931;SDS011;8065;49.520;11.284;2023-03-19T05:57:26;10.00;;;7.00;;
15931;SDS011;8065;49.520;11.284;2023-03-19T05:59:53;7.67;;;6.80;;
15931;SDS011;8065;49.520;11.284;2023-03-19T06:02:19;8.47;;;6.80;;
15931;SDS011;8065;49.520;11.284;2023-03-19T06:04:46;8.07;;;6.90;;
15931;SDS011;8065;49.520;11.284;2023-03-19T06:07:12;7.17;;;6.23;;
15931;SDS011;8065;49.520;11.284;2023-03-19T06:09:40;11.63;;;6.77;;
15931;SDS011;8065;49.520;11.284;2023-03-19T06:12:06;9.50;;;6.87;;
15931;SDS011;8065;49.520;11.284;2023-03-19T06:14:33;8.37;;;6.50;;
15931;SDS011;8065;49.520;11.284;2023-03-19T06:16:59;10.37;;;6.77;;
15931;SDS011;8065;49.520;11.284;2023-03-19T06:19:26;8.80;;;6.93;;
15931;SDS011;8065;49.520;11.284;2023-03-19T06:21:52;8.93;;;6.30;;
15931;SDS011;8065;49.520;11.284;2023-03-19T06:24:19;8.17;;;6.97;;
15931;SDS011;8065;49.520;11.284;2023-03-19T06:26:46;7.63;;;6.63;;
15931;SDS011;8065;49.520;11.284;2023-03-19T06:29:13;11.50;;;6.70;;
15931;SDS011;8065;49.520;11.284;2023-03-19T06:31:39;10.10;;;7.63;;
15931;SDS011;8065;49.520;11.284;2023-03-19T06:34:06;11.07;;;8.40;;
15931;SDS011;8065;49.520;11.284;2023-03-19T06:36:32;11.70;;;7.70;;
15931;SDS011;8065;49.520;11.284;2023-03-19T06:38:59;10.30;;;6.80;;
15931;SDS011;8065;49.520;11.284;2023-03-19T06:41:25;11.70;;;7.40;;
15931;SDS011;8065;49.520;11.284;2023-03-19T06:43:53;9.13;;;6.37;;
15931;SDS011;8065;49.520;11.284;2023-03-19T06:46:20;9.40;;;6.63;;
15931;SDS011;8065;49.520;11.284;2023-03-19T06:48:48;8.77;;;6.97;;
15931;SDS011;8065;49.520;11.284;2023-03-19T06:51:14;11.80;;;9.43;;
15931;SDS011;8065;49.520;11.284;2023-03-19T06:53:40;12.30;;;8.37;;
15931;SDS011;8065;49.520;11.284;2023-03-19T06:56:07;9.47;;;7.43;;
15931;SDS011;8065;49.520;11.284;2023-03-19T06:58:34;10.37;;;7.83;;
15931;SDS011;8065;49.520;11.284;2023-03-19T07:01:02;8.90;;;7.13;;
15931;SDS011;8065;49.520;11.284;2023-03-19T07:03:28;9.30;;;6.70;;
15931;SDS011;8065;49.520;11.284;2023-03-19T07:05:55;10.90;;;6.83;;
15931;SDS011;8065;49.520;11.284;2023-03-19T07:08:22;10.13;;;7.13;;
15931;SDS011;8065;49.520;11.284;2023-03-19T07:10:51;10.00;;;7.77;;
15931;SDS011;8065;49.520;11.284;2023-03-19T07:13:18;12.50;;;7.77;;
15931;SDS011;8065;49.520;11.284;2023-03-19T07:15:44;10.83;;;7.50;;
15931;SDS011;8065;49.520;11.284;2023-03-19T07:18:13;9.90;;;7.70;;
15931;SDS011;8065;49.520;11.284;2023-03-19T07:20:40;14.37;;;8.77;;
15931;SDS011;8065;49.520;11.284;2023-03-19T07:23:06;12.90;;;8.03;;
15931;SDS011;8065;49.520;11.284;2023-03-19T07:25:33;11.43;;;7.43;;
15931;SDS011;8065;49.520;11.284;2023-03-19T07:27:59;10.20;;;7.13;;
15931;SDS011;8065;49.520;11.284;2023-03-19T07:30:25;9.77;;;7.27;;
15931;SDS011;8065;49.520;11.284;2023-03-19T07:32:52;9.27;;;7.10;;
15931;SDS011;8065;49.520;11.284;2023-03-19T07:35:21;11.63;;;7.50;;
15931;SDS011;8065;49.520;11.284;2023-03-19T07:37:48;12.47;;;7.70;;
15931;SDS011;8065;49.520;11.284;2023-03-19T07:40:14;12.23;;;8.13;;
15931;SDS011;8065;49.520;11.284;2023-03-19T07:42:41;9.53;;;7.17;;
15931;SDS011;8065;49.520;11.284;2023-03-19T07:45:08;9.83;;;7.53;;
15931;SDS011;8065;49.520;11.284;2023-03-19T07:47:34;11.10;;;7.67;;
15931;SDS011;8065;49.520;11.284;2023-03-19T07:50:01;12.40;;;7.83;;
15931;SDS011;8065;49.520;11.284;2023-03-19T07:52:29;10.63;;;7.70;;
15931;SDS011;8065;49.520;11.284;2023-03-19T07:54:55;12.47;;;8.80;;
15931;SDS011;8065;49.520;11.284;2023-03-19T07:57:22;9.83;;;7.77;;
15931;SDS011;8065;49.520;11.284;2023-03-19T07:59:49;9.80;;;7.90;;
15931;SDS011;8065;49.520;11.284;2023-03-19T08:02:15;8.97;;;7.67;;
15931;SDS011;8065;49.520;11.284;2023-03-19T08:04:43;9.10;;;7.97;;
15931;SDS011;8065;49.520;11.284;2023-03-19T08:07:09;8.30;;;7.40;;
15931;SDS011;8065;49.520;11.284;2023-03-19T08:09:38;11.23;;;8.03;;
15931;SDS011;8065;49.520;11.284;2023-03-19T08:12:05;10.47;;;7.90;;
15931;SDS011;8065;49.520;11.284;2023-03-19T08:14:32;10.60;;;8.27;;
15931;SDS011;8065;49.520;11.284;2023-03-19T08:16:59;9.47;;;7.40;;
15931;SDS011;8065;49.520;11.284;2023-03-19T08:19:26;8.47;;;7.60;;
15931;SDS011;8065;49.520;11.284;2023-03-19T08:21:52;9.20;;;7.57;;
15931;SDS011;8065;49.520;11.284;2023-03-19T08:24:19;8.70;;;7.10;;
15931;SDS011;8065;49.520;11.284;2023-03-19T08:26:47;14.43;;;8.53;;
15931;SDS011;8065;49.520;11.284;2023-03-19T08:29:13;10.43;;;7.77;;
15931;SDS011;8065;49.520;11.284;2023-03-19T08:31:40;8.53;;;7.37;;
15931;SDS011;8065;49.520;11.284;2023-03-19T08:34:07;10.33;;;7.97;;
15931;SDS011;8065;49.520;11.284;2023-03-19T08:36:34;10.40;;;7.53;;
15931;SDS011;8065;49.520;11.284;2023-03-19T08:39:01;8.60;;;6.83;;
15931;SDS011;8065;49.520;11.284;2023-03-19T08:41:28;10.87;;;6.70;;
15931;SDS011;8065;49.520;11.284;2023-03-19T08:43:56;7.80;;;6.20;;
15931;SDS011;8065;49.520;11.284;2023-03-19T08:46:22;7.83;;;6.83;;
15931;SDS011;8065;49.520;11.284;2023-03-19T08:48:50;8.53;;;6.63;;
15931;SDS011;8065;49.520;11.284;2023-03-19T08:51:17;11.60;;;6.37;;
15931;SDS011;8065;49.520;11.284;2023-03-19T08:53:43;9.57;;;7.17;;
15931;SDS011;8065;49.520;11.284;2023-03-19T08:56:10;9.17;;;6.40;;
15931;SDS011;8065;49.520;11.284;2023-03-19T08:58:37;8.90;;;5.93;;
15931;SDS011;8065;49.520;11.284;2023-03-19T09:01:05;7.03;;;5.60;;
15931;SDS011;8065;49.520;11.284;2023-03-19T09:03:34;6.13;;;5.27;;
15931;SDS011;8065;49.520;11.284;2023-03-19T09:06:02;8.07;;;4.73;;
15931;SDS011;8065;49.520;11.284;2023-03-19T09:08:30;6.83;;;4.80;;
15931;SDS011;8065;49.520;11.284;2023-03-19T09:10:58;6.00;;;4.83;;
15931;SDS011;8065;49.520;11.284;2023-03-19T09:13:25;5.70;;;4.80;;
15931;SDS011;8065;49.520;11.284;2023-03-19T09:15:51;6.63;;;4.93;;
15931;SDS011;8065;49.520;11.284;2023-03-19T09:18:19;7.10;;;4.73;;
15931;SDS011;8065;49.520;11.284;2023-03-19T09:20:48;5.70;;;5.00;;
15931;SDS011;8065;49.520;11.284;2023-03-19T09:23:15;7.23;;;4.60;;
15931;SDS011;8065;49.520;11.284;2023-03-19T09:25:41;6.97;;;4.77;;
15931;SDS011;8065;49.520;11.284;2023-03-19T09:28:08;5.43;;;4.23;;
15931;SDS011;8065;49.520;11.284;2023-03-19T09:30:34;4.70;;;4.17;;
15931;SDS011;8065;49.520;11.284;2023-03-19T09:33:02;4.97;;;4.43;;
15931;SDS011;8065;49.520;11.284;2023-03-19T09:35:30;6.07;;;4.33;;
15931;SDS011;8065;49.520;11.284;2023-03-19T09:37:57;5.03;;;4.50;;
15931;SDS011;8065;49.520;11.284;2023-03-19T09:40:25;53.87;;;7.73;;
15931;SDS011;8065;49.520;11.284;2023-03-19T09:42:57;31.67;;;6.07;;
15931;SDS011;8065;49.520;11.284;2023-03-19T09:45:30;7.23;;;4.47;;
15931;SDS011;8065;49.520;11.284;2023-03-19T09:47:58;6.77;;;4.47;;
15931;SDS011;8065;49.520;11.284;2023-03-19T09:50:31;5.47;;;4.77;;
15931;SDS011;8065;49.520;11.284;2023-03-19T09:53:00;8.13;;;4.80;;
15931;SDS011;8065;49.520;11.284;2023-03-19T09:55:35;5.13;;;4.63;;
15931;SDS011;8065;49.520;11.284;2023-03-19T09:58:09;4.93;;;4.43;;
15931;SDS011;8065;49.520;11.284;2023-03-19T10:00:39;5.27;;;4.43;;
15931;SDS011;8065;49.520;11.284;2023-03-19T10:03:11;6.27;;;4.70;;
15931;SDS011;8065;49.520;11.284;2023-03-19T10:06:09;7.73;;;5.13;;
15931;SDS011;8065;49.520;11.284;2023-03-19T10:08:58;6.13;;;4.70;;
15931;SDS011;8065;49.520;11.284;2023-03-19T10:11:43;7.10;;;5.27;;
15931;SDS011;8065;49.520;11.284;2023-03-19T10:17:29;7.70;;;5.83;;
15931;SDS011;8065;49.520;11.284;2023-03-19T10:20:00;5.70;;;5.20;;
15931;SDS011;8065;49.520;11.284;2023-03-19T10:22:33;5.80;;;5.13;;
15931;SDS011;8065;49.520;11.284;2023-03-19T10:25:03;7.03;;;5.67;;
15931;SDS011;8065;49.520;11.284;2023-03-19T10:27:35;6.00;;;5.40;;
15931;SDS011;8065;49.520;11.284;2023-03-19T10:30:09;6.63;;;5.97;;
15931;SDS011;8065;49.520;11.284;2023-03-19T10:32:39;5.97;;;5.30;;
15931;SDS011;8065;49.520;11.284;2023-03-19T10:35:11;5.43;;;4.53;;
15931;SDS011;8065;49.520;11.284;2023-03-19T10:37:45;6.10;;;4.77;;
15931;SDS011;8065;49.520;11.284;2023-03-19T10:40:16;5.50;;;4.83;;
15931;SDS011;8065;49.520;11.284;2023-03-19T10:42:52;5.83;;;4.70;;
15931;SDS011;8065;49.520;11.284;2023-03-19T10:45:30;5.23;;;4.73;;
15931;SDS011;8065;49.520;11.284;2023-03-19T10:47:58;6.80;;;5.10;;
15931;SDS011;8065;49.520;11.284;2023-03-19T10:50:27;5.30;;;4.80;;
15931;SDS011;8065;49.520;11.284;2023-03-19T10:53:01;7.57;;;5.70;;
15931;SDS011;8065;49.520;11.284;2023-03-19T10:55:30;7.70;;;4.93;;
15931;SDS011;8065;49.520;11.284;2023-03-19T10:58:01;4.77;;;4.30;;
15931;SDS011;8065;49.520;11.284;2023-03-19T11:00:28;6.83;;;4.73;;
15931;SDS011;8065;49.520;11.284;2023-03-19T11:02:58;8.67;;;5.47;;
15931;SDS011;8065;49.520;11.284;2023-03-19T11:05:29;5.33;;;4.57;;
15931;SDS011;8065;49.520;11.284;2023-03-19T11:07:56;5.07;;;4.00;;
15931;SDS011;8065;49.520;11.284;2023-03-19T11:10:27;5.63;;;4.37;;
15931;SDS011;8065;49.520;11.284;2023-03-19T11:12:56;5.87;;;4.50;;
15931;SDS011;8065;49.520;11.284;2023-03-19T11:15:25;6.13;;;4.73;;
15931;SDS011;8065;49.520;11.284;2023-03-19T11:17:55;6.23;;;5.53;;
15931;SDS011;8065;49.520;11.284;2023-03-19T11:20:26;8.37;;;5.50;;
15931;SDS011;8065;49.520;11.284;2023-03-19T11:22:55;8.20;;;5.50;;
15931;SDS011;8065;49.520;11.284;2023-03-19T11:25:28;6.00;;;4.03;;
15931;SDS011;8065;49.520;11.284;2023-03-19T11:27:59;6.70;;;5.23;;
15931;SDS011;8065;49.520;11.284;2023-03-19T11:30:29;6.00;;;5.10;;
15931;SDS011;8065;49.520;11.284;2023-03-19T11:33:07;6.73;;;4.40;;
15931;SDS011;8065;49.520;11.284;2023-03-19T11:35:46;5.43;;;4.30;;
15931;SDS011;8065;49.520;11.284;2023-03-19T11:38:16;4.90;;;4.47;;
15931;SDS011;8065;49.520;11.284;2023-03-19T11:40:52;4.13;;;3.73;;
15931;SDS011;8065;49.520;11.284;2023-03-19T11:43:39;5.07;;;4.00;;
15931;SDS011;8065;49.520;11.284;2023-03-19T11:46:15;3.80;;;3.20;;
15931;SDS011;8065;49.520;11.284;2023-03-19T11:49:16;4.83;;;3.70;;
15931;SDS011;8065;49.520;11.284;2023-03-19T11:51:51;4.00;;;3.43;;
15931;SDS011;8065;49.520;11.284;2023-03-19T11:54:25;4.07;;;3.77;;
15931;SDS011;8065;49.520;11.284;2023-03-19T11:57:00;4.90;;;4.00;;
15931;SDS011;8065;49.520;11.284;2023-03-19T11:59:38;4.30;;;3.90;;
15931;SDS011;8065;49.520;11.284;2023-03-19T12:02:22;3.87;;;3.57;;
15931;SDS011;8065;49.520;11.284;2023-03-19T12:05:02;3.60;;;3.30;;
15931;SDS011;8065;49.520;11.284;2023-03-19T12:07:41;3.30;;;3.00;;
15931;SDS011;8065;49.520;11.284;2023-03-19T12:10:19;4.07;;;3.53;;
15931;SDS011;8065;49.520;11.284;2023-03-19T12:12:56;3.23;;;2.97;;
15931;SDS011;8065;49.520;11.284;2023-03-19T12:15:38;3.50;;;3.20;;
15931;SDS011;8065;49.520;11.284;2023-03-19T12:18:16;2.67;;;2.53;;
15931;SDS011;8065;49.520;11.284;2023-03-19T12:20:51;3.33;;;3.03;;
15931;SDS011;8065;49.520;11.284;2023-03-19T12:23:30;3.17;;;2.87;;
15931;SDS011;8065;49.520;11.284;2023-03-19T12:26:05;3.77;;;2.63;;
15931;SDS011;8065;49.520;11.284;2023-03-19T12:28:35;3.40;;;2.93;;
15931;SDS011;8065;49.520;11.284;2023-03-19T12:34:00;3.67;;;3.10;;
15931;SDS011;8065;49.520;11.284;2023-03-19T12:36:39;3.30;;;3.00;;
15931;SDS011;8065;49.520;11.284;2023-03-19T12:39:14;3.80;;;2.97;;
15931;SDS011;8065;49.520;11.284;2023-03-19T12:41:46;4.50;;;3.50;;
15931;SDS011;8065;49.520;11.284;2023-03-19T12:44:17;3.17;;;2.73;;
15931;SDS011;8065;49.520;11.284;2023-03-19T12:46:48;2.57;;;2.37;;
15931;SDS011;8065;49.520;11.284;2023-03-19T12:49:22;2.43;;;2.13;;
15931;SDS011;8065;49.520;11.284;2023-03-19T12:51:55;3.20;;;2.90;;
15931;SDS011;8065;49.520;11.284;2023-03-19T12:54:26;2.40;;;2.10;;
15931;SDS011;8065;49.520;11.284;2023-03-19T12:56:57;3.53;;;2.43;;
15931;SDS011;8065;49.520;11.284;2023-03-19T12:59:29;3.73;;;2.30;;
15931;SDS011;8065;49.520;11.284;2023-03-19T13:02:02;3.27;;;2.40;;
15931;SDS011;8065;49.520;11.284;2023-03-19T13:04:37;2.33;;;1.93;;
15931;SDS011;8065;49.520;11.284;2023-03-19T13:07:12;2.43;;;1.80;;
15931;SDS011;8065;49.520;11.284;2023-03-19T13:09:46;2.33;;;1.90;;
15931;SDS011;8065;49.520;11.284;2023-03-19T13:12:17;3.47;;;2.40;;
15931;SDS011;8065;49.520;11.284;2023-03-19T13:14:50;2.40;;;1.93;;
15931;SDS011;8065;49.520;11.284;2023-03-19T13:17:23;2.73;;;1.87;;
15931;SDS011;8065;49.520;11.284;2023-03-19T13:19:53;2.20;;;2.00;;
15931;SDS011;8065;49.520;11.284;2023-03-19T13:22:21;2.87;;;1.87;;
15931;SDS011;8065;49.520;11.284;2023-03-19T13:24:50;2.03;;;1.70;;
15931;SDS011;8065;49.520;11.284;2023-03-19T13:27:19;2.97;;;2.00;;
15931;SDS011;8065;49.520;11.284;2023-03-19T13:29:53;2.00;;;1.63;;
15931;SDS011;8065;49.520;11.284;2023-03-19T13:32:27;1.97;;;1.77;;
15931;SDS011;8065;49.520;11.284;2023-03-19T13:35:19;2.97;;;1.80;;
15931;SDS011;8065;49.520;11.284;2023-03-19T13:37:54;2.27;;;1.73;;
15931;SDS011;8065;49.520;11.284;2023-03-19T13:49:20;3.17;;;1.97;;
15931;SDS011;8065;49.520;11.284;2023-03-19T13:51:50;1.77;;;1.67;;
15931;SDS011;8065;49.520;11.284;2023-03-19T13:54:19;2.60;;;2.30;;
15931;SDS011;8065;49.520;11.284;2023-03-19T13:57:04;2.43;;;2.07;;
15931;SDS011;8065;49.520;11.284;2023-03-19T13:59:42;2.17;;;1.77;;
15931;SDS011;8065;49.520;11.284;2023-03-19T14:05:15;2.93;;;1.80;;
15931;SDS011;8065;49.520;11.284;2023-03-19T14:07:45;1.53;;;1.37;;
15931;SDS011;8065;49.520;11.284;2023-03-19T14:10:18;1.60;;;1.50;;
15931;SDS011;8065;49.520;11.284;2023-03-19T14:12:49;2.43;;;1.70;;
15931;SDS011;8065;49.520;11.284;2023-03-19T14:15:19;1.87;;;1.70;;
15931;SDS011;8065;49.520;11.284;2023-03-19T14:17:53;1.80;;;1.60;;
15931;SDS011;8065;49.520;11.284;2023-03-19T14:20:23;1.97;;;1.47;;
15931;SDS011;8065;49.520;11.284;2023-03-19T14:22:53;3.37;;;2.20;;
15931;SDS011;8065;49.520;11.284;2023-03-19T14:25:27;1.70;;;1.47;;
15931;SDS011;8065;49.520;11.284;2023-03-19T14:28:36;2.50;;;1.70;;
15931;SDS011;8065;49.520;11.284;2023-03-19T14:31:14;1.70;;;1.60;;
15931;SDS011;8065;49.520;11.284;2023-03-19T14:33:49;2.77;;;1.50;;
15931;SDS011;8065;49.520;11.284;2023-03-19T14:36:20;2.77;;;1.80;;
15931;SDS011;8065;49.520;11.284;2023-03-19T14:38:48;3.17;;;1.50;;
15931;SDS011;8065;49.520;11.284;2023-03-19T14:41:18;2.53;;;1.83;;
15931;SDS011;8065;49.520;11.284;2023-03-19T14:46:58;1.27;;;1.17;;
15931;SDS011;8065;49.520;11.284;2023-03-19T14:49:48;2.17;;;1.60;;
15931;SDS011;8065;49.520;11.284;2023-03-19T14:52:24;1.67;;;1.50;;
15931;SDS011;8065;49.520;11.284;2023-03-19T14:54:54;1.73;;;1.30;;
15931;SDS011;8065;49.520;11.284;2023-03-19T14:57:25;1.83;;;1.37;;
15931;SDS011;8065;49.520;11.284;2023-03-19T14:59:53;2.10;;;1.37;;
15931;SDS011;8065;49.520;11.284;2023-03-19T15:02:24;1.63;;;1.40;;
15931;SDS011;8065;49.520;11.284;2023-03-19T15:04:59;1.60;;;1.43;;
15931;SDS011;8065;49.520;11.284;2023-03-19T15:07:29;1.93;;;1.37;;
15931;SDS011;8065;49.520;11.284;2023-03-19T15:10:00;1.63;;;1.53;;
15931;SDS011;8065;49.520;11.284;2023-03-19T15:12:30;1.47;;;1.37;;
15931;SDS011;8065;49.520;11.284;2023-03-19T15:15:11;2.63;;;1.50;;
15931;SDS011;8065;49.520;11.284;2023-03-19T15:17:46;2.03;;;1.23;;
15931;SDS011;8065;49.520;11.284;2023-03-19T15:20:19;1.33;;;1.23;;